createdAt,value
2023-11-28T00:00:01.911Z,0.45
2023-11-28T00:00:15.688Z,0.44
2023-11-28T00:00:49.641Z,0.42
2023-11-28T00:01:20.498Z,0.41
2023-11-28T00:01:33.709Z,0.40
2023-11-28T00:01:46.802Z,0.42
2023-11-28T00:02:00.739Z,0.40
2023-11-28T00:02:13.863Z,0.39
2023-11-28T00:02:28.129Z,0.40
2023-11-28T00:02:41.020Z,0.39
2023-11-28T00:02:54.169Z,0.37
2023-11-28T00:03:07.091Z,0.36
2023-11-28T00:03:19.980Z,0.36
2023-11-28T00:03:33.298Z,0.35
2023-11-28T00:03:46.199Z,0.36
2023-11-28T00:03:59.890Z,0.34
2023-11-28T00:04:12.687Z,0.34
2023-11-28T00:04:25.482Z,0.34
2023-11-28T00:04:38.303Z,0.34
2023-11-28T00:04:51.456Z,0.33
2023-11-28T00:05:05.826Z,0.33
2023-11-28T00:05:18.661Z,0.33
2023-11-28T00:05:31.997Z,0.32
2023-11-28T00:05:45.715Z,0.31
2023-11-28T00:05:58.827Z,0.31
2023-11-28T00:06:16.595Z,0.30
2023-11-28T00:06:29.361Z,0.30
2023-11-28T00:06:42.047Z,0.29
2023-11-28T00:06:55.363Z,0.30
2023-11-28T00:07:08.030Z,0.29
2023-11-28T00:07:20.726Z,0.27
2023-11-28T00:07:34.713Z,0.28
2023-11-28T00:07:47.643Z,0.27
2023-11-28T00:08:01.484Z,0.26
2023-11-28T00:08:14.577Z,0.26
2023-11-28T00:08:27.969Z,0.26
2023-11-28T00:08:40.659Z,0.25
2023-11-28T00:08:53.388Z,0.25
2023-11-28T00:09:06.108Z,0.23
2023-11-28T00:09:20.145Z,0.24
2023-11-28T00:09:32.888Z,0.23
2023-11-28T00:09:46.415Z,0.23
2023-11-28T00:09:59.086Z,0.22
2023-11-28T00:10:11.915Z,0.22
2023-11-28T00:10:24.662Z,0.22
2023-11-28T00:10:37.768Z,0.22
2023-11-28T00:10:50.625Z,0.20
2023-11-28T00:11:05.929Z,0.21
2023-11-28T00:11:19.953Z,0.21
2023-11-28T00:11:34.286Z,0.20
2023-11-28T00:11:47.039Z,0.20
2023-11-28T00:11:59.687Z,0.19
2023-11-28T00:12:12.400Z,0.20
2023-11-28T00:12:25.680Z,0.19
2023-11-28T00:12:38.394Z,0.18
2023-11-28T00:12:51.476Z,0.18
2023-11-28T00:13:04.263Z,0.17
2023-11-28T00:13:17.556Z,0.15
2023-11-28T00:13:30.488Z,0.16
2023-11-28T00:13:44.284Z,0.16
2023-11-28T00:13:57.081Z,0.15
2023-11-28T00:14:09.896Z,0.15
2023-11-28T00:14:22.699Z,0.14
2023-11-28T00:14:35.574Z,0.13
2023-11-28T00:14:50.134Z,0.13
2023-11-28T00:15:02.915Z,0.12
2023-11-28T00:15:16.000Z,0.12
2023-11-28T00:15:28.717Z,0.11
2023-11-28T00:15:43.308Z,0.10
2023-11-28T00:15:56.035Z,0.11
2023-11-28T00:16:09.354Z,0.10
2023-11-28T00:16:23.120Z,0.10
2023-11-28T00:16:35.911Z,0.09
2023-11-28T00:16:49.005Z,0.09
2023-11-28T00:17:01.864Z,0.09
2023-11-28T00:17:14.830Z,0.08
2023-11-28T00:17:29.225Z,0.09
2023-11-28T00:17:42.245Z,0.07
2023-11-28T00:17:56.136Z,0.07
2023-11-28T00:18:09.055Z,0.07
2023-11-28T00:18:21.953Z,0.07
2023-11-28T00:18:34.821Z,0.07
2023-11-28T00:18:47.950Z,0.07
2023-11-28T00:19:00.838Z,0.07
2023-11-28T00:19:13.631Z,0.08
2023-11-28T00:19:26.429Z,0.06
2023-11-28T00:19:40.226Z,0.06
2023-11-28T00:19:52.933Z,0.07
2023-11-28T00:20:07.093Z,0.06
2023-11-28T00:20:20.050Z,0.05
2023-11-28T00:20:33.043Z,0.06
2023-11-28T00:20:46.047Z,0.04
2023-11-28T00:20:58.924Z,0.04
2023-11-28T00:21:13.075Z,0.04
2023-11-28T00:21:25.848Z,0.04
2023-11-28T00:21:38.634Z,0.04
2023-11-28T00:21:51.372Z,0.04
2023-11-28T00:22:05.882Z,0.03
2023-11-28T00:22:18.808Z,0.04
2023-11-28T00:22:31.562Z,0.03
2023-11-28T00:22:44.341Z,0.03
2023-11-28T00:22:57.095Z,0.02
2023-11-28T00:23:09.884Z,0.02
2023-11-28T00:23:23.396Z,0.02
2023-11-28T00:23:36.209Z,0.02
2023-11-28T00:23:48.988Z,0.01
2023-11-28T00:24:03.772Z,0.00
2023-11-28T00:24:16.714Z,-0.01
2023-11-28T00:24:29.795Z,-0.00
2023-11-28T00:24:42.526Z,-0.01
2023-11-28T00:24:55.571Z,-0.02
2023-11-28T00:25:09.148Z,-0.01
2023-11-28T00:25:21.931Z,-0.04
2023-11-28T00:25:34.801Z,-0.03
2023-11-28T00:25:47.807Z,-0.04
2023-11-28T00:26:01.934Z,-0.05
2023-11-28T00:26:15.928Z,-0.05
2023-11-28T00:26:28.728Z,-0.05
2023-11-28T00:26:41.532Z,-0.08
2023-11-28T00:26:54.613Z,-0.08
2023-11-28T00:27:07.349Z,-0.08
2023-11-28T00:27:20.142Z,-0.09
2023-11-28T00:27:33.390Z,-0.11
2023-11-28T00:27:48.596Z,-0.10
2023-11-28T00:28:01.414Z,-0.12
2023-11-28T00:28:14.201Z,-0.11
2023-11-28T00:28:27.273Z,-0.13
2023-11-28T00:28:40.342Z,-0.13
2023-11-28T00:28:53.445Z,-0.14
2023-11-28T00:29:06.220Z,-0.13
2023-11-28T00:29:19.012Z,-0.15
2023-11-28T00:29:31.814Z,-0.14
2023-11-28T00:29:45.618Z,-0.16
2023-11-28T00:29:58.494Z,-0.16
2023-11-28T00:30:12.794Z,-0.15
2023-11-28T00:30:25.746Z,-0.16
2023-11-28T00:30:39.233Z,-0.16
2023-11-28T00:30:52.426Z,-0.18
2023-11-28T00:31:05.533Z,-0.18
2023-11-28T00:31:18.362Z,-0.18
2023-11-28T00:31:31.544Z,-0.19
2023-11-28T00:31:44.590Z,-0.19
2023-11-28T00:31:59.208Z,-0.19
2023-11-28T00:32:12.333Z,-0.19
2023-11-28T00:32:25.644Z,-0.19
2023-11-28T00:32:39.903Z,-0.20
2023-11-28T00:32:53.011Z,-0.20
2023-11-28T00:33:05.828Z,-0.21
2023-11-28T00:33:19.147Z,-0.21
2023-11-28T00:33:31.899Z,-0.21
2023-11-28T00:33:45.666Z,-0.20
2023-11-28T00:33:58.582Z,-0.21
2023-11-28T00:34:11.318Z,-0.22
2023-11-28T00:34:24.459Z,-0.22
2023-11-28T00:34:37.293Z,-0.23
2023-11-28T00:34:50.090Z,-0.23
2023-11-28T00:35:03.182Z,-0.23
2023-11-28T00:35:16.321Z,-0.25
2023-11-28T00:35:30.194Z,-0.24
2023-11-28T00:35:45.259Z,-0.25
2023-11-28T00:35:58.030Z,-0.26
2023-11-28T00:36:10.768Z,-0.26
2023-11-28T00:36:23.558Z,-0.26
2023-11-28T00:36:36.490Z,-0.26
2023-11-28T00:36:49.222Z,-0.27
2023-11-28T00:37:02.060Z,-0.28
2023-11-28T00:37:14.860Z,-0.29
2023-11-28T00:37:27.644Z,-0.29
2023-11-28T00:37:41.507Z,-0.28
2023-11-28T00:37:54.490Z,-0.29
2023-11-28T00:38:07.671Z,-0.30
2023-11-28T00:38:20.432Z,-0.30
2023-11-28T00:38:33.213Z,-0.30
2023-11-28T00:38:46.012Z,-0.31
2023-11-28T00:38:58.770Z,-0.33
2023-11-28T00:39:12.687Z,-0.32
2023-11-28T00:39:25.917Z,-0.33
2023-11-28T00:39:41.553Z,-0.34
2023-11-28T00:39:54.331Z,-0.33
2023-11-28T00:40:12.394Z,-0.34
2023-11-28T00:40:28.638Z,-0.35
2023-11-28T00:40:41.837Z,-0.35
2023-11-28T00:40:54.717Z,-0.35
2023-11-28T00:41:08.419Z,-0.36
2023-11-28T00:41:21.306Z,-0.35
2023-11-28T00:41:34.333Z,-0.36
2023-11-28T00:41:47.250Z,-0.36
2023-11-28T00:42:04.354Z,-0.37
2023-11-28T00:42:17.784Z,-0.37
2023-11-28T00:42:30.507Z,-0.38
2023-11-28T00:42:43.277Z,-0.37
2023-11-28T00:42:56.030Z,-0.38
2023-11-28T00:43:09.825Z,-0.39
2023-11-28T00:43:22.952Z,-0.40
2023-11-28T00:43:35.839Z,-0.38
2023-11-28T00:43:50.013Z,-0.39
2023-11-28T00:44:03.090Z,-0.40
2023-11-28T00:44:16.012Z,-0.41
2023-11-28T00:44:31.528Z,-0.41
2023-11-28T00:44:44.235Z,-0.42
2023-11-28T00:44:56.980Z,-0.41
2023-11-28T00:45:10.859Z,-0.42
2023-11-28T00:45:26.521Z,-0.42
2023-11-28T00:45:41.000Z,-0.44
2023-11-28T00:45:53.790Z,-0.45
2023-11-28T00:46:11.773Z,-0.44
2023-11-28T00:46:24.591Z,-0.46
2023-11-28T00:46:40.109Z,-0.46
2023-11-28T00:46:53.264Z,-0.46
2023-11-28T00:47:10.615Z,-0.47
2023-11-28T00:47:23.571Z,-0.47
2023-11-28T00:47:36.508Z,-0.48
2023-11-28T00:47:50.808Z,-0.48
2023-11-28T00:48:04.335Z,-0.48
2023-11-28T00:48:17.265Z,-0.49
2023-11-28T00:48:30.076Z,-0.50
2023-11-28T00:48:44.197Z,-0.50
2023-11-28T00:48:57.805Z,-0.51
2023-11-28T00:49:14.122Z,-0.51
2023-11-28T00:49:26.902Z,-0.51
2023-11-28T00:49:41.979Z,-0.51
2023-11-28T00:49:54.772Z,-0.52
2023-11-28T00:50:08.824Z,-0.51
2023-11-28T00:50:21.705Z,-0.52
2023-11-28T00:50:34.436Z,-0.53
2023-11-28T00:50:47.492Z,-0.53
2023-11-28T00:51:00.245Z,-0.53
2023-11-28T00:51:15.803Z,-0.53
2023-11-28T00:51:28.556Z,-0.53
2023-11-28T00:51:42.931Z,-0.53
2023-11-28T00:51:55.909Z,-0.54
2023-11-28T00:52:09.273Z,-0.54
2023-11-28T00:52:22.182Z,-0.53
2023-11-28T00:52:35.037Z,-0.54
2023-11-28T00:52:49.669Z,-0.55
2023-11-28T00:53:02.465Z,-0.54
2023-11-28T00:53:15.560Z,-0.55
2023-11-28T00:53:28.287Z,-0.55
2023-11-28T00:53:41.335Z,-0.55
2023-11-28T00:53:54.077Z,-0.55
2023-11-28T00:54:06.850Z,-0.56
2023-11-28T00:54:19.598Z,-0.56
2023-11-28T00:54:32.707Z,-0.56
2023-11-28T00:54:45.591Z,-0.56
2023-11-28T00:54:58.369Z,-0.57
2023-11-28T00:55:11.423Z,-0.57
2023-11-28T00:55:25.470Z,-0.57
2023-11-28T00:55:38.395Z,-0.57
2023-11-28T00:55:51.249Z,-0.58
2023-11-28T00:56:05.209Z,-0.57
2023-11-28T00:56:21.565Z,-0.56
2023-11-28T00:56:34.292Z,-0.58
2023-11-28T00:56:48.026Z,-0.58
2023-11-28T00:57:01.925Z,-0.58
2023-11-28T00:57:14.824Z,-0.57
2023-11-28T00:57:28.600Z,-0.57
2023-11-28T00:57:41.453Z,-0.58
2023-11-28T00:57:54.813Z,-0.59
2023-11-28T00:58:07.566Z,-0.57
2023-11-28T00:58:20.609Z,-0.58
2023-11-28T00:58:33.365Z,-0.58
2023-11-28T00:58:46.450Z,-0.59
2023-11-28T00:58:59.244Z,-0.59
2023-11-28T00:59:14.088Z,-0.59
2023-11-28T00:59:26.824Z,-0.59
2023-11-28T00:59:39.624Z,-0.58
2023-11-28T00:59:52.713Z,-0.59
2023-11-28T01:00:08.269Z,-0.59
2023-11-28T01:00:21.098Z,-0.59
2023-11-28T01:00:34.832Z,-0.59
2023-11-28T01:00:47.600Z,-0.59
2023-11-28T01:01:00.329Z,-0.59
2023-11-28T01:01:13.595Z,-0.60
2023-11-28T01:01:27.695Z,-0.60
2023-11-28T01:01:40.657Z,-0.61
2023-11-28T01:01:53.795Z,-0.61
2023-11-28T01:02:07.049Z,-0.61
2023-11-28T01:02:20.130Z,-0.62
2023-11-28T01:02:33.070Z,-0.62
2023-11-28T01:02:46.096Z,-0.63
2023-11-28T01:03:01.206Z,-0.62
2023-11-28T01:03:14.310Z,-0.62
2023-11-28T01:03:28.170Z,-0.63
2023-11-28T01:03:41.065Z,-0.65
2023-11-28T01:03:54.040Z,-0.63
2023-11-28T01:04:06.947Z,-0.64
2023-11-28T01:04:20.022Z,-0.64
2023-11-28T01:04:33.026Z,-0.66
2023-11-28T01:04:45.980Z,-0.64
2023-11-28T01:04:59.229Z,-0.64
2023-11-28T01:05:12.688Z,-0.67
2023-11-28T01:05:26.535Z,-0.66
2023-11-28T01:05:39.288Z,-0.66
2023-11-28T01:05:52.329Z,-0.66
2023-11-28T01:06:05.723Z,-0.67
2023-11-28T01:06:18.642Z,-0.66
2023-11-28T01:06:32.806Z,-0.67
2023-11-28T01:06:45.587Z,-0.67
2023-11-28T01:06:58.444Z,-0.67
2023-11-28T01:07:12.275Z,-0.68
2023-11-28T01:07:25.087Z,-0.67
2023-11-28T01:07:38.355Z,-0.68
2023-11-28T01:07:51.277Z,-0.68
2023-11-28T01:08:04.335Z,-0.70
2023-11-28T01:08:17.244Z,-0.70
2023-11-28T01:08:29.984Z,-0.68
2023-11-28T01:08:43.760Z,-0.70
2023-11-28T01:08:58.679Z,-0.70
2023-11-28T01:09:15.925Z,-0.70
2023-11-28T01:09:28.807Z,-0.70
2023-11-28T01:09:41.577Z,-0.70
2023-11-28T01:09:54.552Z,-0.71
2023-11-28T01:10:08.899Z,-0.71
2023-11-28T01:10:21.692Z,-0.71
2023-11-28T01:10:36.668Z,-0.71
2023-11-28T01:10:51.493Z,-0.71
2023-11-28T01:11:04.885Z,-0.71
2023-11-28T01:11:17.814Z,-0.72
2023-11-28T01:11:30.582Z,-0.71
2023-11-28T01:11:43.526Z,-0.72
2023-11-28T01:11:56.280Z,-0.72
2023-11-28T01:12:09.178Z,-0.72
2023-11-28T01:12:22.199Z,-0.72
2023-11-28T01:12:34.926Z,-0.73
2023-11-28T01:12:47.961Z,-0.75
2023-11-28T01:13:00.710Z,-0.72
2023-11-28T01:13:14.438Z,-0.74
2023-11-28T01:13:27.179Z,-0.74
2023-11-28T01:13:40.214Z,-0.75
2023-11-28T01:13:53.054Z,-0.74
2023-11-28T01:14:05.947Z,-0.75
2023-11-28T01:14:18.918Z,-0.76
2023-11-28T01:14:32.338Z,-0.76
2023-11-28T01:14:45.452Z,-0.76
2023-11-28T01:14:58.290Z,-0.76
2023-11-28T01:15:12.494Z,-0.78
2023-11-28T01:15:25.300Z,-0.78
2023-11-28T01:15:38.198Z,-0.78
2023-11-28T01:15:50.940Z,-0.79
2023-11-28T01:16:04.205Z,-0.79
2023-11-28T01:16:17.046Z,-0.80
2023-11-28T01:16:29.922Z,-0.80
2023-11-28T01:16:45.285Z,-0.80
2023-11-28T01:16:58.106Z,-0.82
2023-11-28T01:17:11.903Z,-0.83
2023-11-28T01:17:24.920Z,-0.83
2023-11-28T01:17:38.099Z,-0.82
2023-11-28T01:17:50.923Z,-0.82
2023-11-28T01:18:05.507Z,-0.82
2023-11-28T01:18:18.384Z,-0.82
2023-11-28T01:18:31.518Z,-0.84
2023-11-28T01:18:46.031Z,-0.83
2023-11-28T01:18:58.765Z,-0.84
2023-11-28T01:19:12.003Z,-0.85
2023-11-28T01:19:26.109Z,-0.84
2023-11-28T01:19:39.601Z,-0.84
2023-11-28T01:19:52.641Z,-0.85
2023-11-28T01:20:06.854Z,-0.85
2023-11-28T01:20:19.826Z,-0.84
2023-11-28T01:20:32.559Z,-0.84
2023-11-28T01:20:46.987Z,-0.85
2023-11-28T01:20:59.757Z,-0.85
2023-11-28T01:21:12.837Z,-0.85
2023-11-28T01:21:25.556Z,-0.86
2023-11-28T01:21:39.336Z,-0.85
2023-11-28T01:21:52.600Z,-0.86
2023-11-28T01:22:05.889Z,-0.86
2023-11-28T01:22:18.819Z,-0.86
2023-11-28T01:22:31.555Z,-0.85
2023-11-28T01:22:44.471Z,-0.86
2023-11-28T01:22:57.295Z,-0.87
2023-11-28T01:23:10.508Z,-0.86
2023-11-28T01:23:23.408Z,-0.87
2023-11-28T01:23:37.168Z,-0.86
2023-11-28T01:23:49.923Z,-0.86
2023-11-28T01:24:02.681Z,-0.86
2023-11-28T01:24:15.553Z,-0.87
2023-11-28T01:24:28.544Z,-0.88
2023-11-28T01:24:42.996Z,-0.89
2023-11-28T01:24:56.017Z,-0.88
2023-11-28T01:25:09.203Z,-0.89
2023-11-28T01:25:21.961Z,-0.89
2023-11-28T01:25:36.109Z,-0.89
2023-11-28T01:25:48.977Z,-0.90
2023-11-28T01:26:02.219Z,-0.89
2023-11-28T01:26:15.015Z,-0.91
2023-11-28T01:26:27.835Z,-0.91
2023-11-28T01:26:40.563Z,-0.90
2023-11-28T01:26:53.312Z,-0.91
2023-11-28T01:27:06.130Z,-0.91
2023-11-28T01:27:21.091Z,-0.91
2023-11-28T01:27:33.842Z,-0.91
2023-11-28T01:27:46.567Z,-0.91
2023-11-28T01:27:59.441Z,-0.92
2023-11-28T01:28:12.210Z,-0.92
2023-11-28T01:28:24.975Z,-0.93
2023-11-28T01:28:38.077Z,-0.93
2023-11-28T01:28:50.850Z,-0.94
2023-11-28T01:29:05.103Z,-0.94
2023-11-28T01:29:19.047Z,-0.94
2023-11-28T01:29:31.767Z,-0.95
2023-11-28T01:29:44.527Z,-0.95
2023-11-28T01:29:57.500Z,-0.95
2023-11-28T01:30:13.423Z,-0.95
2023-11-28T01:30:26.170Z,-0.96
2023-11-28T01:30:38.970Z,-0.95
2023-11-28T01:30:51.810Z,-0.96
2023-11-28T01:31:06.365Z,-0.97
2023-11-28T01:31:25.934Z,-0.95
2023-11-28T01:31:38.836Z,-0.96
2023-11-28T01:31:51.732Z,-0.95
2023-11-28T01:32:05.143Z,-0.95
2023-11-28T01:32:18.148Z,-0.95
2023-11-28T01:32:31.459Z,-0.95
2023-11-28T01:32:44.471Z,-0.94
2023-11-28T01:32:57.337Z,-0.95
2023-11-28T01:33:13.272Z,-0.94
2023-11-28T01:33:26.059Z,-0.93
2023-11-28T01:33:38.812Z,-0.93
2023-11-28T01:33:51.655Z,-0.93
2023-11-28T01:34:04.416Z,-0.93
2023-11-28T01:34:29.551Z,-0.92
2023-11-28T01:34:42.404Z,-0.93
2023-11-28T01:34:55.332Z,-0.92
2023-11-28T01:35:10.461Z,-0.93
2023-11-28T01:35:23.285Z,-0.92
2023-11-28T01:35:36.817Z,-0.93
2023-11-28T01:35:49.611Z,-0.93
2023-11-28T01:36:04.972Z,-0.93
2023-11-28T01:36:18.143Z,-0.93
2023-11-28T01:36:30.913Z,-0.93
2023-11-28T01:36:44.623Z,-0.93
2023-11-28T01:36:58.401Z,-0.93
2023-11-28T01:37:11.694Z,-0.92
2023-11-28T01:37:24.513Z,-0.92
2023-11-28T01:37:37.754Z,-0.92
2023-11-28T01:37:50.615Z,-0.92
2023-11-28T01:38:04.202Z,-0.92
2023-11-28T01:38:17.091Z,-0.93
2023-11-28T01:38:29.839Z,-0.92
2023-11-28T01:38:44.385Z,-0.93
2023-11-28T01:38:57.140Z,-0.92
2023-11-28T01:39:10.009Z,-0.92
2023-11-28T01:39:22.928Z,-0.92
2023-11-28T01:39:35.695Z,-0.92
2023-11-28T01:39:48.616Z,-0.92
2023-11-28T01:40:02.703Z,-0.92
2023-11-28T01:40:15.629Z,-0.92
2023-11-28T01:40:29.509Z,-0.90
2023-11-28T01:40:42.426Z,-0.92
2023-11-28T01:40:55.192Z,-0.92
2023-11-28T01:41:09.511Z,-0.91
2023-11-28T01:41:22.282Z,-0.91
2023-11-28T01:41:35.197Z,-0.92
2023-11-28T01:41:48.339Z,-0.92
2023-11-28T01:42:01.116Z,-0.92
2023-11-28T01:42:15.527Z,-0.91
2023-11-28T01:42:28.274Z,-0.91
2023-11-28T01:42:41.063Z,-0.90
2023-11-28T01:42:53.869Z,-0.90
2023-11-28T01:43:06.609Z,-0.90
2023-11-28T01:43:25.858Z,-0.90
2023-11-28T01:43:38.825Z,-0.89
2023-11-28T01:43:52.990Z,-0.89
2023-11-28T01:44:06.234Z,-0.89
2023-11-28T01:44:19.093Z,-0.89
2023-11-28T01:44:31.946Z,-0.89
2023-11-28T01:44:45.187Z,-0.89
2023-11-28T01:44:58.014Z,-0.89
2023-11-28T01:45:11.140Z,-0.88
2023-11-28T01:45:23.875Z,-0.89
2023-11-28T01:45:37.643Z,-0.89
2023-11-28T01:45:50.550Z,-0.89
2023-11-28T01:46:05.413Z,-0.89
2023-11-28T01:46:18.404Z,-0.90
2023-11-28T01:46:33.028Z,-0.88
2023-11-28T01:46:45.955Z,-0.88
2023-11-28T01:46:59.673Z,-0.89
2023-11-28T01:47:13.601Z,-0.88
2023-11-28T01:47:27.457Z,-0.89
2023-11-28T01:47:41.786Z,-0.88
2023-11-28T01:47:55.688Z,-0.87
2023-11-28T01:48:08.705Z,-0.87
2023-11-28T01:48:23.910Z,-0.88
2023-11-28T01:48:37.380Z,-0.87
2023-11-28T01:48:51.173Z,-0.86
2023-11-28T01:49:05.082Z,-0.87
2023-11-28T01:49:20.883Z,-0.86
2023-11-28T01:49:36.374Z,-0.87
2023-11-28T01:49:49.337Z,-0.86
2023-11-28T01:50:03.225Z,-0.87
2023-11-28T01:50:16.094Z,-0.86
2023-11-28T01:50:28.859Z,-0.87
2023-11-28T01:50:44.135Z,-0.87
2023-11-28T01:50:57.197Z,-0.87
2023-11-28T01:51:11.637Z,-0.88
2023-11-28T01:51:24.463Z,-0.87
2023-11-28T01:51:38.350Z,-0.88
2023-11-28T01:51:51.520Z,-0.87
2023-11-28T01:52:05.533Z,-0.88
2023-11-28T01:52:18.613Z,-0.88
2023-11-28T01:52:32.969Z,-0.89
2023-11-28T01:52:46.088Z,-0.89
2023-11-28T01:52:59.916Z,-0.89
2023-11-28T01:53:13.314Z,-0.89
2023-11-28T01:53:26.860Z,-0.89
2023-11-28T01:53:41.473Z,-0.90
2023-11-28T01:53:57.536Z,-0.91
2023-11-28T01:54:10.946Z,-0.92
2023-11-28T01:54:23.741Z,-0.93
2023-11-28T01:54:36.735Z,-0.94
2023-11-28T01:54:50.200Z,-0.94
2023-11-28T01:55:03.258Z,-0.95
2023-11-28T01:55:18.336Z,-0.95
2023-11-28T01:55:31.452Z,-0.96
2023-11-28T01:55:44.609Z,-0.96
2023-11-28T01:55:57.546Z,-0.97
2023-11-28T01:56:12.051Z,-0.98
2023-11-28T01:56:25.353Z,-0.98
2023-11-28T01:56:38.353Z,-0.98
2023-11-28T01:56:52.741Z,-0.99
2023-11-28T01:57:06.458Z,-1.00
2023-11-28T01:57:20.369Z,-0.99
2023-11-28T01:57:34.015Z,-0.99
2023-11-28T01:57:49.670Z,-0.99
2023-11-28T01:58:02.756Z,-0.98
2023-11-28T01:58:16.760Z,-1.00
2023-11-28T01:58:30.135Z,-1.00
2023-11-28T01:58:43.653Z,-0.99
2023-11-28T01:58:57.095Z,-0.99
2023-11-28T01:59:11.456Z,-1.00
2023-11-28T01:59:24.393Z,-1.01
2023-11-28T01:59:37.487Z,-1.00
2023-11-28T01:59:50.312Z,-1.00
2023-11-28T02:00:05.166Z,-1.00
2023-11-28T02:00:18.784Z,-1.00
2023-11-28T02:00:31.656Z,-1.01
2023-11-28T02:00:45.442Z,-1.00
2023-11-28T02:00:58.841Z,-1.00
2023-11-28T02:01:12.637Z,-0.99
2023-11-28T02:01:29.556Z,-1.00
2023-11-28T02:01:44.838Z,-1.01
2023-11-28T02:01:58.757Z,-1.01
2023-11-28T02:02:12.227Z,-1.01
2023-11-28T02:02:25.630Z,-1.00
2023-11-28T02:02:38.693Z,-1.00
2023-11-28T02:02:51.714Z,-1.01
2023-11-28T02:03:08.846Z,-1.01
2023-11-28T02:03:28.340Z,-1.01
2023-11-28T02:03:43.291Z,-1.00
2023-11-28T02:03:56.138Z,-1.01
2023-11-28T02:04:09.293Z,-1.03
2023-11-28T02:04:22.188Z,-1.03
2023-11-28T02:04:35.130Z,-1.03
2023-11-28T02:04:50.343Z,-1.04
2023-11-28T02:05:04.040Z,-1.03
2023-11-28T02:05:17.978Z,-1.02
2023-11-28T02:05:31.234Z,-1.02
2023-11-28T02:05:44.433Z,-1.04
2023-11-28T02:05:58.304Z,-1.03
2023-11-28T02:06:11.153Z,-1.05
2023-11-28T02:06:23.899Z,-1.04
2023-11-28T02:06:36.978Z,-1.07
2023-11-28T02:06:50.655Z,-1.06
2023-11-28T02:07:03.589Z,-1.05
2023-11-28T02:07:17.475Z,-1.05
2023-11-28T02:07:30.420Z,-1.07
2023-11-28T02:07:43.925Z,-1.07
2023-11-28T02:07:57.298Z,-1.07
2023-11-28T02:08:11.281Z,-1.07
2023-11-28T02:08:24.272Z,-1.08
2023-11-28T02:08:37.118Z,-1.09
2023-11-28T02:08:50.878Z,-1.09
2023-11-28T02:09:03.880Z,-1.09
2023-11-28T02:09:16.769Z,-1.09
2023-11-28T02:09:29.727Z,-1.09
2023-11-28T02:09:42.649Z,-1.09
2023-11-28T02:09:56.169Z,-1.09
2023-11-28T02:10:10.149Z,-1.09
2023-11-28T02:10:24.520Z,-1.09
2023-11-28T02:10:40.579Z,-1.10
2023-11-28T02:10:53.573Z,-1.09
2023-11-28T02:11:07.024Z,-1.09
2023-11-28T02:11:20.141Z,-1.09
2023-11-28T02:11:33.202Z,-1.09
2023-11-28T02:11:46.042Z,-1.09
2023-11-28T02:11:58.874Z,-1.09
2023-11-28T02:12:12.685Z,-1.11
2023-11-28T02:12:25.421Z,-1.09
2023-11-28T02:12:38.251Z,-1.10
2023-11-28T02:12:51.278Z,-1.10
2023-11-28T02:13:04.133Z,-1.09
2023-11-28T02:13:17.059Z,-1.10
2023-11-28T02:13:31.637Z,-1.11
2023-11-28T02:13:44.649Z,-1.10
2023-11-28T02:13:57.417Z,-1.12
2023-11-28T02:14:11.487Z,-1.12
2023-11-28T02:14:24.597Z,-1.12
2023-11-28T02:14:43.845Z,-1.12
2023-11-28T02:14:56.656Z,-1.12
2023-11-28T02:15:10.078Z,-1.12
2023-11-28T02:15:41.083Z,-1.11
2023-11-28T02:15:55.948Z,-1.11
2023-11-28T02:16:12.991Z,-1.11
2023-11-28T02:16:26.820Z,-1.09
2023-11-28T02:16:39.634Z,-1.11
2023-11-28T02:16:54.468Z,-1.10
2023-11-28T02:17:07.578Z,-1.10
2023-11-28T02:17:20.345Z,-1.09
2023-11-28T02:17:33.151Z,-1.09
2023-11-28T02:17:45.959Z,-1.09
2023-11-28T02:17:58.706Z,-1.09
2023-11-28T02:18:12.757Z,-1.08
2023-11-28T02:18:27.908Z,-1.08
2023-11-28T02:18:41.517Z,-1.08
2023-11-28T02:18:54.248Z,-1.09
2023-11-28T02:19:06.950Z,-1.08
2023-11-28T02:19:19.644Z,-1.07
2023-11-28T02:19:32.432Z,-1.08
2023-11-28T02:19:48.396Z,-1.07
2023-11-28T02:20:01.336Z,-1.08
2023-11-28T02:20:14.129Z,-1.06
2023-11-28T02:20:26.808Z,-1.07
2023-11-28T02:20:41.677Z,-1.08
2023-11-28T02:20:54.393Z,-1.08
2023-11-28T02:21:07.887Z,-1.08
2023-11-28T02:21:20.984Z,-1.09
2023-11-28T02:21:33.735Z,-1.09
2023-11-28T02:21:47.134Z,-1.08
2023-11-28T02:21:59.936Z,-1.08
2023-11-28T02:22:12.845Z,-1.08
2023-11-28T02:22:27.385Z,-1.07
2023-11-28T02:22:40.411Z,-1.08
2023-11-28T02:22:53.244Z,-1.05
2023-11-28T02:23:06.648Z,-1.07
2023-11-28T02:23:19.467Z,-1.06
2023-11-28T02:23:33.766Z,-1.07
2023-11-28T02:23:46.595Z,-1.07
2023-11-28T02:23:59.694Z,-1.07
2023-11-28T02:24:15.725Z,-1.07
2023-11-28T02:24:30.517Z,-1.07
2023-11-28T02:24:45.656Z,-1.07
2023-11-28T02:25:00.364Z,-1.05
2023-11-28T02:25:13.618Z,-1.06
2023-11-28T02:25:28.265Z,-1.07
2023-11-28T02:25:45.205Z,-1.05
2023-11-28T02:26:03.533Z,-1.07
2023-11-28T02:26:23.809Z,-1.06
2023-11-28T02:26:37.542Z,-1.06
2023-11-28T02:26:50.238Z,-1.06
2023-11-28T02:27:02.980Z,-1.07
2023-11-28T02:27:15.749Z,-1.07
2023-11-28T02:27:28.623Z,-1.07
2023-11-28T02:27:41.305Z,-1.08
2023-11-28T02:27:54.015Z,-1.07
2023-11-28T02:28:07.214Z,-1.07
2023-11-28T02:28:21.055Z,-1.07
2023-11-28T02:28:33.838Z,-1.08
2023-11-28T02:28:47.120Z,-1.07
2023-11-28T02:29:00.994Z,-1.05
2023-11-28T02:29:13.867Z,-1.07
2023-11-28T02:29:27.054Z,-1.07
2023-11-28T02:29:41.348Z,-1.06
2023-11-28T02:29:54.054Z,-1.05
2023-11-28T02:30:07.823Z,-1.05
2023-11-28T02:30:20.637Z,-1.07
2023-11-28T02:30:33.456Z,-1.07
2023-11-28T02:30:49.315Z,-1.05
2023-11-28T02:31:03.035Z,-1.05
2023-11-28T02:31:15.826Z,-1.04
2023-11-28T02:31:28.570Z,-1.05
2023-11-28T02:31:41.410Z,-1.05
2023-11-28T02:31:54.240Z,-1.05
2023-11-28T02:32:07.421Z,-1.05
2023-11-28T02:32:20.660Z,-1.05
2023-11-28T02:32:33.542Z,-1.08
2023-11-28T02:32:46.587Z,-1.08
2023-11-28T02:32:59.365Z,-1.07
2023-11-28T02:33:12.419Z,-1.07
2023-11-28T02:33:26.938Z,-1.08
2023-11-28T02:33:39.822Z,-1.10
2023-11-28T02:33:53.141Z,-1.10
2023-11-28T02:34:06.029Z,-1.10
2023-11-28T02:34:18.775Z,-1.10
2023-11-28T02:34:31.507Z,-1.09
2023-11-28T02:34:44.346Z,-1.09
2023-11-28T02:34:57.100Z,-1.09
2023-11-28T02:35:17.485Z,-1.09
2023-11-28T02:35:36.649Z,-1.10
2023-11-28T02:35:49.624Z,-1.09
2023-11-28T02:36:02.381Z,-1.09
2023-11-28T02:36:15.981Z,-1.09
2023-11-28T02:36:30.522Z,-1.10
2023-11-28T02:36:43.260Z,-1.10
2023-11-28T02:36:56.208Z,-1.10
2023-11-28T02:37:08.962Z,-1.12
2023-11-28T02:37:22.672Z,-1.10
2023-11-28T02:37:35.539Z,-1.11
2023-11-28T02:37:48.243Z,-1.12
2023-11-28T02:38:01.010Z,-1.12
2023-11-28T02:38:13.984Z,-1.12
2023-11-28T02:38:26.697Z,-1.13
2023-11-28T02:38:39.381Z,-1.13
2023-11-28T02:38:52.371Z,-1.13
2023-11-28T02:39:05.799Z,-1.13
2023-11-28T02:39:19.653Z,-1.14
2023-11-28T02:39:32.368Z,-1.13
2023-11-28T02:39:45.095Z,-1.14
2023-11-28T02:39:57.951Z,-1.13
2023-11-28T02:40:10.913Z,-1.14
2023-11-28T02:40:23.714Z,-1.14
2023-11-28T02:40:36.674Z,-1.15
2023-11-28T02:40:49.690Z,-1.15
2023-11-28T02:41:02.519Z,-1.16
2023-11-28T02:41:16.279Z,-1.17
2023-11-28T02:41:30.465Z,-1.17
2023-11-28T02:41:43.205Z,-1.17
2023-11-28T02:41:55.891Z,-1.17
2023-11-28T02:42:08.566Z,-1.17
2023-11-28T02:42:21.301Z,-1.18
2023-11-28T02:42:33.982Z,-1.18
2023-11-28T02:42:46.785Z,-1.18
2023-11-28T02:42:59.508Z,-1.19
2023-11-28T02:43:13.300Z,-1.18
2023-11-28T02:43:26.041Z,-1.19
2023-11-28T02:43:38.783Z,-1.19
2023-11-28T02:43:51.624Z,-1.20
2023-11-28T02:44:04.692Z,-1.19
2023-11-28T02:44:17.650Z,-1.18
2023-11-28T02:44:30.672Z,-1.19
2023-11-28T02:44:44.400Z,-1.19
2023-11-28T02:44:57.149Z,-1.19
2023-11-28T02:45:10.929Z,-1.20
2023-11-28T02:45:24.667Z,-1.20
2023-11-28T02:45:37.497Z,-1.21
2023-11-28T02:45:50.253Z,-1.20
2023-11-28T02:46:03.614Z,-1.21
2023-11-28T02:46:16.377Z,-1.20
2023-11-28T02:46:29.144Z,-1.21
2023-11-28T02:46:43.159Z,-1.21
2023-11-28T02:46:55.938Z,-1.21
2023-11-28T02:47:08.887Z,-1.21
2023-11-28T02:47:22.654Z,-1.21
2023-11-28T02:47:35.381Z,-1.20
2023-11-28T02:47:48.124Z,-1.20
2023-11-28T02:48:00.937Z,-1.21
2023-11-28T02:48:13.930Z,-1.21
2023-11-28T02:48:26.886Z,-1.21
2023-11-28T02:48:41.084Z,-1.21
2023-11-28T02:48:53.825Z,-1.21
2023-11-28T02:49:06.604Z,-1.21
2023-11-28T02:49:19.379Z,-1.22
2023-11-28T02:49:33.071Z,-1.21
2023-11-28T02:49:45.802Z,-1.21
2023-11-28T02:49:58.702Z,-1.22
2023-11-28T02:50:11.454Z,-1.22
2023-11-28T02:50:24.180Z,-1.22
2023-11-28T02:50:38.695Z,-1.22
2023-11-28T02:50:51.463Z,-1.22
2023-11-28T02:51:06.072Z,-1.23
2023-11-28T02:51:21.415Z,-1.23
2023-11-28T02:51:34.278Z,-1.24
2023-11-28T02:51:48.033Z,-1.23
2023-11-28T02:52:00.728Z,-1.24
2023-11-28T02:52:13.683Z,-1.24
2023-11-28T02:52:27.094Z,-1.25
2023-11-28T02:52:40.551Z,-1.24
2023-11-28T02:52:53.666Z,-1.23
2023-11-28T02:53:06.818Z,-1.23
2023-11-28T02:53:19.629Z,-1.25
2023-11-28T02:53:32.488Z,-1.24
2023-11-28T02:53:46.202Z,-1.24
2023-11-28T02:53:58.920Z,-1.25
2023-11-28T02:54:11.626Z,-1.24
2023-11-28T02:54:24.332Z,-1.25
2023-11-28T02:54:37.003Z,-1.25
2023-11-28T02:54:49.765Z,-1.26